Terminal Aerodrome Forecast
Issued by NWS

Home | Current Version | Previous Version | Text Only | Print | Product List | Glossary On
Versions: 1 2 3 4 5 6 7 8 9 10 11 12 13 14 15 16 17 18 19 20 21 22 23 24 25
000
FTUS45 KGJT 012322
TAFVEL
TAF
KVEL 012322Z 0200/0224 24006KT P6SM SCT090 SCT140
     FM020300 30004KT P6SM SCT200
     FM021400 11003KT P6SM SKC
     FM022100 06005KT P6SM FEW110=

USA.gov is the U.S. government's official web portal to all federal, state and local government web resources and services.